Time;durP1;ratioP1;P1;durP2;ratioP2;P2;SDS_P1;SDS_P2;PMS_P1;PMS_P2;Temp;Humidity;BMP_temperature;BMP_pressure;BME280_temperature;BME280_humidity;BME280_pressure;Samples;Min_cycle;Max_cycle;Signal;HPM_P1;HPM_P2
2022/09/06 07:29:11;;;;;;;14.38;7.82;;;22.20;70.70;;;;;;7376207;19;20010;-85
2022/09/06 07:31:56;;;;;;;11.63;7.20;;;22.20;70.60;;;;;;7383427;19;20494;-90
2022/09/06 07:38:16;;;;;;;17.00;7.68;;;22.40;70.90;;;;;;7385247;19;20010;-90
2022/09/06 07:40:55;;;;;;;13.77;6.72;;;22.40;70.80;;;;;;7383928;19;20025;-91
2022/09/06 07:46:10;;;;;;;14.80;6.88;;;22.40;70.40;;;;;;7340624;19;19923;-89
2022/09/06 07:48:40;;;;;;;18.50;6.75;;;22.50;70.80;;;;;;7375599;19;20917;-82
2022/09/06 07:51:11;;;;;;;11.43;7.70;;;22.50;71.10;;;;;;7394439;19;20022;-88
2022/09/06 07:53:41;;;;;;;17.90;7.70;;;22.60;71.50;;;;;;7374441;19;20033;-90
2022/09/06 07:56:12;;;;;;;6.93;5.20;;;22.60;71.60;;;;;;7393129;19;20035;-93
2022/09/06 07:58:42;;;;;;;12.75;4.80;;;22.60;70.50;;;;;;7390978;19;20026;-92
2022/09/06 08:01:35;;;;;;;7.43;4.55;;;22.60;69.10;;;;;;7383197;19;20022;-92
2022/09/06 08:09:09;;;;;;;12.40;3.75;;;22.80;68.60;;;;;;7308263;19;20082;-84
2022/09/06 08:11:39;;;;;;;9.77;3.60;;;22.80;68.50;;;;;;7374810;19;20031;-84
2022/09/06 08:14:10;;;;;;;6.45;3.25;;;22.50;67.50;;;;;;7376102;19;20025;-83
2022/09/06 08:16:41;;;;;;;15.02;3.95;;;22.70;67.50;;;;;;7376670;19;20015;-83
2022/09/06 08:19:11;;;;;;;;;;;22.60;66.90;;;;;;7382256;19;20010;-84
2022/09/06 08:21:40;;;;;;;9.60;3.85;;;22.60;66.20;;;;;;7378615;19;20214;-81
2022/09/06 08:24:11;;;;;;;7.35;3.70;;;22.70;67.30;;;;;;7405968;19;20019;-81
2022/09/06 08:26:41;;;;;;;7.15;3.70;;;22.80;66.30;;;;;;7384703;19;20025;-81
2022/09/06 08:29:11;;;;;;;7.68;3.20;;;22.90;66.90;;;;;;7384127;19;20461;-81
2022/09/06 08:31:44;;;;;;;8.18;3.22;;;23.00;65.50;;;;;;7381877;19;20125;-80
2022/09/06 08:34:14;;;;;;;5.25;3.03;;;22.80;64.90;;;;;;7382759;19;20117;-80
2022/09/06 08:36:44;;;;;;;6.57;3.03;;;22.90;65.10;;;;;;7379271;19;20029;-81
2022/09/06 08:39:13;;;;;;;7.18;3.20;;;23.10;64.50;;;;;;7406439;19;20016;-81
2022/09/06 08:41:50;;;;;;;4.43;2.83;;;22.90;62.90;;;;;;7387889;19;20015;-81
2022/09/06 08:44:22;;;;;;;7.00;2.65;;;22.70;64.40;;;;;;7383003;19;20035;-81
2022/09/06 08:46:58;;;;;;;11.02;2.65;;;23.00;63.90;;;;;;7379803;19;20022;-81
2022/09/06 08:49:29;;;;;;;7.15;2.45;;;23.00;62.40;;;;;;7385731;19;20024;-80
2022/09/06 08:52:33;;;;;;;3.00;2.03;;;23.00;60.80;;;;;;7388065;19;20026;-80
2022/09/06 08:55:17;;;;;;;7.85;2.30;;;23.00;61.60;;;;;;7385790;19;20028;-80
2022/09/06 08:57:59;;;;;;;4.88;2.20;;;23.10;61.30;;;;;;7387357;19;20019;-81
2022/09/06 09:00:28;;;;;;;9.75;2.60;;;23.20;62.10;;;;;;7408609;19;20035;-83
2022/09/06 09:03:09;;;;;;;5.53;2.30;;;23.40;62.70;;;;;;7386839;19;20113;-82
2022/09/06 09:05:39;;;;;;;4.65;2.47;;;23.40;61.60;;;;;;7385839;19;20010;-82
2022/09/06 09:08:17;;;;;;;6.05;2.10;;;23.30;60.50;;;;;;7385835;19;20018;-83
2022/09/06 09:10:49;;;;;;;5.53;2.38;;;23.60;60.90;;;;;;7377872;19;20018;-80
2022/09/06 09:13:25;;;;;;;15.88;2.78;;;23.70;61.60;;;;;;7367779;19;20026;-77
2022/09/06 09:15:54;;;;;;;5.65;2.13;;;23.80;60.90;;;;;;7374352;19;20087;-77
2022/09/06 09:18:31;;;;;;;6.00;2.38;;;23.90;59.80;;;;;;7399023;19;20019;-81
2022/09/06 09:21:00;;;;;;;14.35;2.08;;;24.00;59.50;;;;;;7389070;19;20018;-87
2022/09/06 09:23:31;;;;;;;5.72;2.30;;;24.10;59.30;;;;;;7391982;19;20018;-89
2022/09/06 09:26:11;;;;;;;3.80;2.00;;;23.90;58.50;;;;;;7399153;19;20007;-90
2022/09/06 09:28:40;;;;;;;5.50;1.98;;;24.00;59.20;;;;;;7398638;19;20018;-90
2022/09/06 09:31:09;;;;;;;5.07;2.20;;;24.10;58.80;;;;;;7402451;19;20030;-91
2022/09/06 09:33:43;;;;;;;5.40;2.00;;;24.10;59.00;;;;;;7405111;19;20035;-89
2022/09/06 09:36:16;;;;;;;10.38;2.28;;;24.30;59.00;;;;;;7397888;19;20027;-83
2022/09/06 09:38:48;;;;;;;9.60;2.47;;;24.30;58.20;;;;;;7367867;19;20014;-89
2022/09/06 09:41:29;;;;;;;9.52;1.90;;;24.30;58.00;;;;;;7403541;19;20125;-87
2022/09/06 09:44:00;;;;;;;5.22;2.25;;;24.40;58.60;;;;;;7392345;19;20014;-90
2022/09/06 09:46:34;;;;;;;10.95;2.25;;;24.40;58.30;;;;;;7390727;19;20049;-78
2022/09/06 09:49:09;;;;;;;6.22;2.03;;;24.50;58.80;;;;;;7376261;19;20010;-77
2022/09/06 09:51:40;;;;;;;7.38;2.20;;;24.60;58.80;;;;;;7374022;19;20028;-79
2022/09/06 09:54:11;;;;;;;4.90;2.30;;;24.50;58.60;;;;;;7401738;19;20074;-89
2022/09/06 09:56:45;;;;;;;15.47;2.73;;;24.60;60.10;;;;;;7395939;19;20007;-90
2022/09/06 09:59:27;;;;;;;9.18;2.83;;;24.50;62.90;;;;;;7397080;19;20037;-89
2022/09/06 10:01:58;;;;;;;14.98;2.28;;;24.40;62.80;;;;;;7397801;19;20339;-89
2022/09/06 10:04:37;;;;;;;5.47;2.20;;;24.50;61.80;;;;;;7392876;19;20011;-89
2022/09/06 10:07:13;;;;;;;4.70;2.15;;;24.50;59.90;;;;;;7393046;19;20375;-89
2022/09/06 10:09:45;;;;;;;5.25;1.80;;;24.30;59.40;;;;;;7391721;19;20011;-88
2022/09/06 10:12:19;;;;;;;10.60;2.38;;;24.30;60.30;;;;;;7423896;19;20014;-89
2022/09/06 10:14:50;;;;;;;8.73;2.42;;;24.40;61.70;;;;;;7410345;19;20014;-89
2022/09/06 10:17:30;;;;;;;11.47;2.80;;;24.50;60.60;;;;;;7410290;19;20002;-88
2022/09/06 10:20:03;;;;;;;6.20;2.30;;;24.30;60.80;;;;;;7401783;19;20282;-89
2022/09/06 10:22:34;;;;;;;5.68;2.50;;;24.30;59.50;;;;;;7397507;19;20011;-88
2022/09/06 10:25:39;;;;;;;10.17;2.70;;;24.30;60.40;;;;;;7376689;19;20026;-85
2022/09/06 10:28:30;;;;;;;5.68;2.22;;;24.10;59.30;;;;;;7403274;19;20256;-86
2022/09/06 10:31:07;;;;;;;;;;;24.10;59.70;;;;;;7381447;19;20062;-86
2022/09/06 10:33:43;;;;;;;7.60;2.63;;;24.00;60.70;;;;;;7404263;19;20006;-84
2022/09/06 10:36:21;;;;;;;4.18;2.20;;;24.10;60.20;;;;;;7403422;19;20015;-86
2022/09/06 10:38:55;;;;;;;5.78;2.25;;;24.10;60.30;;;;;;7377863;19;20078;-86
2022/09/06 10:41:37;;;;;;;6.72;2.65;;;24.20;60.90;;;;;;7376152;19;20022;-86
2022/09/06 10:44:15;;;;;;;7.47;2.90;;;24.30;62.10;;;;;;7376057;19;20302;-86
2022/09/06 10:46:47;;;;;;;3.75;2.45;;;24.30;62.20;;;;;;7378132;19;20055;-87
2022/09/06 10:49:20;;;;;;;7.18;2.88;;;24.40;62.00;;;;;;7376807;19;20375;-87
2022/09/06 10:51:55;;;;;;;11.70;2.83;;;24.40;62.00;;;;;;7378190;19;20031;-86
2022/09/06 10:54:25;;;;;;;4.15;2.55;;;24.50;62.30;;;;;;7407936;19;20418;-87
2022/09/06 10:57:00;;;;;;;7.53;2.85;;;24.70;61.50;;;;;;7387922;19;20021;-87
2022/09/06 10:59:32;;;;;;;6.57;2.05;;;24.80;61.70;;;;;;7385764;19;20015;-86
2022/09/06 11:02:14;;;;;;;6.65;2.65;;;24.90;60.80;;;;;;7391316;19;20039;-88
2022/09/06 11:04:45;;;;;;;6.88;2.50;;;25.10;61.30;;;;;;7386232;19;20035;-85
2022/09/06 11:07:25;;;;;;;7.40;2.90;;;25.20;61.40;;;;;;7378248;19;20097;-85
2022/09/06 11:10:00;;;;;;;5.50;2.72;;;25.20;61.60;;;;;;7382758;19;20099;-86
2022/09/06 11:12:39;;;;;;;5.78;2.80;;;25.20;60.90;;;;;;7402867;19;20018;-87
2022/09/06 11:15:10;;;;;;;8.05;2.70;;;25.10;60.20;;;;;;7383461;19;20014;-86
2022/09/06 11:17:44;;;;;;;8.70;3.05;;;25.10;59.00;;;;;;7381489;19;20010;-86
2022/09/06 11:20:19;;;;;;;5.72;2.83;;;25.10;60.00;;;;;;7384857;19;20014;-86
2022/09/06 11:23:15;;;;;;;9.35;3.20;;;25.10;61.10;;;;;;7389106;19;20035;-85
2022/09/06 11:26:01;;;;;;;5.38;3.17;;;25.10;61.50;;;;;;7386754;19;20014;-86
2022/09/06 11:28:35;;;;;;;7.90;3.13;;;25.10;62.20;;;;;;7383592;19;20324;-86
2022/09/06 11:31:05;;;;;;;5.60;3.17;;;25.30;61.80;;;;;;7388770;19;20018;-85
2022/09/06 11:33:38;;;;;;;11.70;3.22;;;25.40;61.10;;;;;;7403347;19;20019;-86
2022/09/06 11:36:28;;;;;;;7.63;3.10;;;25.40;61.60;;;;;;7386510;19;20022;-87
2022/09/06 11:39:03;;;;;;;12.00;3.05;;;25.50;61.60;;;;;;7381849;19;20652;-86
2022/09/06 11:41:35;;;;;;;8.52;3.17;;;25.40;60.30;;;;;;7378174;19;20010;-86
2022/09/06 11:44:05;;;;;;;6.15;3.05;;;25.60;60.10;;;;;;7377670;19;20032;-86
2022/09/06 11:47:02;;;;;;;7.47;2.88;;;25.50;58.80;;;;;;7376256;19;20052;-86
2022/09/06 11:49:37;;;;;;;6.28;2.70;;;25.50;58.50;;;;;;7375870;19;20030;-86
2022/09/06 11:52:36;;;;;;;7.68;2.78;;;25.60;58.50;;;;;;7375368;19;20014;-86
2022/09/06 11:55:13;;;;;;;7.07;2.20;;;25.60;58.70;;;;;;7372801;19;20011;-86
2022/09/06 11:57:43;;;;;;;8.40;2.03;;;25.60;57.10;;;;;;7375146;19;20026;-87
2022/09/06 12:00:22;;;;;;;11.63;2.33;;;25.50;54.80;;;;;;7399472;19;20022;-87
2022/09/06 12:02:52;;;;;;;7.05;2.55;;;25.60;55.50;;;;;;7379513;19;20010;-86
2022/09/06 12:05:24;;;;;;;6.80;2.80;;;25.70;56.40;;;;;;7378905;19;20030;-87
2022/09/06 12:08:34;;;;;;;8.02;2.60;;;25.80;56.90;;;;;;7374244;19;20563;-87
2022/09/06 12:11:31;;;;;;;8.38;2.70;;;25.90;57.00;;;;;;7375176;19;20381;-87
2022/09/06 12:14:02;;;;;;;6.05;2.85;;;25.80;56.80;;;;;;7373709;19;20092;-86
2022/09/06 12:17:13;;;;;;;11.13;2.65;;;25.80;57.10;;;;;;7373822;19;20323;-86
2022/09/06 12:19:45;;;;;;;10.77;3.03;;;25.80;56.30;;;;;;7370217;19;20066;-85
2022/09/06 12:22:44;;;;;;;11.82;3.45;;;26.10;56.30;;;;;;7373142;19;20094;-86
2022/09/06 12:25:19;;;;;;;7.75;2.55;;;26.10;55.90;;;;;;7372330;19;20090;-86
2022/09/06 12:27:58;;;;;;;9.38;2.50;;;26.20;56.50;;;;;;7371629;19;20046;-87
2022/09/06 12:30:37;;;;;;;10.00;3.10;;;26.40;56.30;;;;;;7397521;19;20022;-86
2022/09/06 12:33:09;;;;;;;9.10;3.25;;;26.50;56.50;;;;;;7378373;19;20053;-87
2022/09/06 12:35:38;;;;;;;4.45;2.67;;;26.70;55.90;;;;;;7373092;19;20509;-87
2022/09/06 12:38:09;;;;;;;4.38;2.40;;;26.80;55.20;;;;;;7371925;19;20648;-86
2022/09/06 12:40:42;;;;;;;7.05;2.20;;;26.80;55.60;;;;;;7370753;19;20446;-87
2022/09/06 12:43:15;;;;;;;5.10;2.20;;;26.90;55.20;;;;;;7371921;19;20027;-87
2022/09/06 12:45:49;;;;;;;6.30;2.30;;;27.00;54.50;;;;;;7379084;19;20071;-87
2022/09/06 12:48:29;;;;;;;6.07;2.50;;;27.00;54.80;;;;;;7395288;19;20010;-87
2022/09/06 12:51:04;;;;;;;5.72;2.20;;;27.10;55.00;;;;;;7372377;19;20028;-87
2022/09/06 12:53:34;;;;;;;4.97;1.98;;;27.20;54.40;;;;;;7372606;19;20027;-87
2022/09/06 12:56:08;;;;;;;7.05;2.17;;;27.20;53.60;;;;;;7372248;19;20469;-87
2022/09/06 12:58:40;;;;;;;6.80;1.95;;;27.30;53.00;;;;;;7370623;19;20076;-85
2022/09/06 13:01:16;;;;;;;4.75;2.13;;;27.30;53.00;;;;;;7380813;19;20015;-86
2022/09/06 13:03:52;;;;;;;6.00;2.33;;;27.30;52.90;;;;;;7380945;19;20338;-86
2022/09/06 13:06:24;;;;;;;5.57;2.20;;;27.20;52.50;;;;;;7393931;19;20098;-86
2022/09/06 13:08:55;;;;;;;6.43;2.25;;;27.30;52.00;;;;;;7372893;19;20021;-85
2022/09/06 13:11:28;;;;;;;5.63;1.88;;;27.40;52.60;;;;;;7369401;19;20035;-86
2022/09/06 13:14:00;;;;;;;3.42;1.83;;;27.50;52.20;;;;;;7370913;19;20015;-85
2022/09/06 13:16:34;;;;;;;6.65;2.30;;;27.50;50.00;;;;;;7375859;19;20082;-86
2022/09/06 13:19:14;;;;;;;7.70;2.08;;;27.30;49.60;;;;;;7377587;19;20011;-86
2022/09/06 13:21:44;;;;;;;6.40;1.77;;;27.40;50.30;;;;;;7380162;19;20014;-86
2022/09/06 13:24:25;;;;;;;5.05;1.80;;;27.50;50.90;;;;;;7401206;19;20010;-86
2022/09/06 13:26:54;;;;;;;4.03;2.03;;;27.70;50.40;;;;;;7379011;19;20043;-86
2022/09/06 13:29:32;;;;;;;4.47;2.00;;;27.70;50.60;;;;;;7380638;19;20014;-88
2022/09/06 13:32:07;;;;;;;4.03;1.80;;;27.70;51.00;;;;;;7398102;19;20023;-86
2022/09/06 13:34:36;;;;;;;4.15;2.00;;;27.80;49.50;;;;;;7392530;19;20018;-85
2022/09/06 13:37:07;;;;;;;6.82;2.10;;;28.00;49.10;;;;;;7383598;19;20010;-86
2022/09/06 13:39:38;;;;;;;5.53;1.77;;;28.10;48.50;;;;;;7394743;19;20296;-85
2022/09/06 13:42:08;;;;;;;;;;;28.10;47.50;;;;;;7400464;19;20042;-86
2022/09/06 13:44:40;;;;;;;4.25;1.85;;;28.30;47.70;;;;;;7378144;19;19921;-86
2022/09/06 13:47:09;;;;;;;7.75;2.03;;;28.40;47.60;;;;;;7378024;19;20450;-86
2022/09/06 13:49:38;;;;;;;4.85;1.80;;;28.50;47.30;;;;;;7375674;19;20664;-86
2022/09/06 13:52:07;;;;;;;3.30;1.77;;;28.50;47.20;;;;;;7377550;19;20480;-86
2022/09/06 13:54:36;;;;;;;3.97;1.85;;;28.50;46.60;;;;;;7401033;19;20022;-81
2022/09/06 13:57:05;;;;;;;2.85;1.70;;;28.60;46.60;;;;;;7402401;19;20055;-86
2022/09/06 13:59:34;;;;;;;4.10;1.45;;;28.50;46.10;;;;;;7383451;19;20093;-86
2022/09/06 14:02:08;;;;;;;2.58;1.38;;;28.60;45.20;;;;;;7384690;19;20007;-86
2022/09/06 14:04:37;;;;;;;3.75;2.15;;;28.60;43.50;;;;;;7380343;19;20015;-86
2022/09/06 14:07:07;;;;;;;4.32;1.80;;;28.60;44.60;;;;;;7382436;19;20012;-87
2022/09/06 14:09:36;;;;;;;3.38;1.65;;;28.40;44.00;;;;;;7396104;19;20043;-86
2022/09/06 14:12:05;;;;;;;7.65;2.10;;;28.50;44.50;;;;;;7402690;19;20022;-86
2022/09/06 14:14:35;;;;;;;2.95;1.30;;;28.70;44.60;;;;;;7386698;19;20306;-86
2022/09/06 14:17:06;;;;;;;5.22;1.45;;;28.70;43.70;;;;;;7386943;19;20018;-86
2022/09/06 14:19:35;;;;;;;2.28;1.58;;;28.70;43.80;;;;;;7389092;19;20020;-87
2022/09/06 14:22:05;;;;;;;3.85;1.48;;;28.70;43.70;;;;;;7388840;19;20604;-86
2022/09/06 14:24:34;;;;;;;3.43;1.20;;;28.80;43.80;;;;;;7404079;19;20089;-86
2022/09/06 14:27:03;;;;;;;6.35;1.20;;;28.80;42.90;;;;;;7383151;19;20601;-86
2022/09/06 14:29:33;;;;;;;2.72;1.10;;;28.70;41.70;;;;;;7384336;19;20387;-87
2022/09/06 14:32:02;;;;;;;2.65;1.15;;;28.60;42.10;;;;;;7381691;19;20019;-87
2022/09/06 14:34:33;;;;;;;1.90;1.33;;;28.70;42.40;;;;;;7380739;19;20502;-87
2022/09/06 14:37:02;;;;;;;3.50;1.50;;;28.90;42.40;;;;;;7376097;19;20014;-86
2022/09/06 14:39:31;;;;;;;2.72;1.58;;;28.90;41.10;;;;;;7401052;19;20405;-86
2022/09/06 14:41:59;;;;;;;4.65;2.38;;;29.00;40.60;;;;;;7380946;19;20019;-87
2022/09/06 14:44:28;;;;;;;3.28;1.77;;;29.10;40.90;;;;;;7385238;19;20010;-86
2022/09/06 14:46:58;;;;;;;4.47;2.58;;;29.10;40.80;;;;;;7378950;19;20106;-87
2022/09/06 14:49:27;;;;;;;4.50;2.35;;;29.20;40.70;;;;;;7380025;19;20014;-87
2022/09/06 14:51:58;;;;;;;3.17;1.50;;;29.20;40.40;;;;;;7377920;19;20079;-87
2022/09/06 14:54:27;;;;;;;4.43;1.20;;;29.30;40.00;;;;;;7409185;19;20507;-87
2022/09/06 14:56:56;;;;;;;3.22;1.30;;;29.40;39.80;;;;;;7394190;19;20054;-88
2022/09/06 14:59:24;;;;;;;1.92;1.00;;;29.40;39.70;;;;;;7380940;19;20034;-87
2022/09/06 15:01:53;;;;;;;2.58;0.98;;;29.50;39.70;;;;;;7380947;19;20034;-87
2022/09/06 15:04:22;;;;;;;1.30;0.93;;;29.60;39.40;;;;;;7380699;19;20028;-88
2022/09/06 15:06:50;;;;;;;2.20;1.17;;;29.60;38.80;;;;;;7380492;19;20031;-87
2022/09/06 15:09:22;;;;;;;2.03;1.30;;;29.70;38.90;;;;;;7397995;19;20106;-87
2022/09/06 15:11:52;;;;;;;1.58;0.98;;;29.70;39.10;;;;;;7376209;19;20068;-88
2022/09/06 15:14:23;;;;;;;3.83;1.20;;;29.60;39.00;;;;;;7376111;19;20014;-87
2022/09/06 15:16:55;;;;;;;1.65;1.10;;;29.60;39.20;;;;;;7377102;19;20054;-87
2022/09/06 15:19:24;;;;;;;2.17;1.20;;;29.70;39.80;;;;;;7374730;19;20025;-87
2022/09/06 15:21:53;;;;;;;4.10;1.20;;;29.70;39.30;;;;;;7382389;19;20051;-87
2022/09/06 15:24:24;;;;;;;1.88;0.93;;;29.60;39.40;;;;;;7407135;19;20010;-87
2022/09/06 15:26:54;;;;;;;3.55;1.20;;;29.60;39.50;;;;;;7381375;19;20022;-87
2022/09/06 15:29:23;;;;;;;4.20;1.58;;;29.70;39.50;;;;;;7379188;19;20418;-87
2022/09/06 15:31:52;;;;;;;5.38;1.40;;;29.70;39.40;;;;;;7374217;19;20031;-87
2022/09/06 15:34:23;;;;;;;6.40;1.33;;;29.80;39.70;;;;;;7376467;19;20031;-87
2022/09/06 15:36:53;;;;;;;6.03;1.60;;;29.90;39.40;;;;;;7373060;19;20022;-87
2022/09/06 15:39:24;;;;;;;5.57;1.67;;;29.90;39.90;;;;;;7397704;19;20015;-87
2022/09/06 15:41:53;;;;;;;1.58;1.13;;;29.80;40.10;;;;;;7378052;19;20541;-87
2022/09/06 15:44:22;;;;;;;5.32;1.20;;;29.70;39.60;;;;;;7376148;19;20102;-86
2022/09/06 15:46:53;;;;;;;2.92;1.10;;;29.50;39.90;;;;;;7377054;19;20018;-86
2022/09/06 15:49:25;;;;;;;10.43;1.67;;;29.40;39.70;;;;;;7378966;19;20015;-86
2022/09/06 15:51:54;;;;;;;3.28;1.60;;;29.40;40.20;;;;;;7377906;19;20011;-86
2022/09/06 15:55:54;;;;;;;5.25;2.03;;;29.30;40.80;;;;;;7397677;19;20106;-87
2022/09/06 15:57:17;;;;;;;3.30;1.40;;;29.20;41.60;;;;;;7376636;19;20018;-86
2022/09/06 15:59:46;;;;;;;3.65;1.95;;;29.20;41.10;;;;;;7379804;19;20019;-86
2022/09/06 16:02:16;;;;;;;3.85;2.05;;;29.20;41.60;;;;;;7384819;19;20019;-87
2022/09/06 16:04:47;;;;;;;2.63;1.48;;;29.30;41.80;;;;;;7383514;19;20453;-86
2022/09/06 16:07:17;;;;;;;4.32;1.40;;;29.40;41.80;;;;;;7380264;19;20013;-86
2022/09/06 16:09:50;;;;;;;6.28;1.48;;;29.50;42.00;;;;;;7377083;19;20007;-86
2022/09/06 16:12:20;;;;;;;3.75;1.50;;;29.60;42.30;;;;;;7397552;19;20406;-87
2022/09/06 16:14:49;;;;;;;5.15;1.70;;;29.50;42.20;;;;;;7379838;19;20039;-85
2022/09/06 16:17:22;;;;;;;5.90;1.75;;;29.40;42.50;;;;;;7373463;19;20105;-86
2022/09/06 16:19:52;;;;;;;3.92;1.77;;;29.40;44.60;;;;;;7373026;19;20529;-86
2022/09/06 16:22:21;;;;;;;4.88;1.40;;;29.30;43.40;;;;;;7373896;19;20011;-86
2022/09/06 16:24:53;;;;;;;4.90;1.95;;;29.20;43.90;;;;;;7373269;19;20019;-86
2022/09/06 16:27:23;;;;;;;3.30;1.80;;;29.10;43.60;;;;;;7394890;19;20047;-86
2022/09/06 16:29:57;;;;;;;6.38;1.55;;;29.10;43.90;;;;;;7371606;19;20031;-86
2022/09/06 16:32:27;;;;;;;2.88;1.52;;;28.90;43.30;;;;;;7373174;19;20457;-86
2022/09/06 16:34:56;;;;;;;5.93;1.83;;;28.70;44.70;;;;;;7379624;19;20039;-86
2022/09/06 16:37:26;;;;;;;9.75;1.67;;;28.80;46.60;;;;;;7372543;19;20039;-86
2022/09/06 16:39:58;;;;;;;2.83;1.70;;;28.50;47.50;;;;;;7373415;19;20448;-85
2022/09/06 16:42:28;;;;;;;4.65;1.75;;;28.30;47.50;;;;;;7399868;19;20014;-85
2022/09/06 16:44:58;;;;;;;2.42;1.83;;;28.10;47.80;;;;;;7379511;19;20023;-86
2022/09/06 16:47:30;;;;;;;8.13;2.20;;;27.90;48.50;;;;;;7376464;19;20414;-87
2022/09/06 16:50:00;;;;;;;3.85;1.58;;;27.90;48.80;;;;;;7375133;19;20018;-86
2022/09/06 16:52:30;;;;;;;4.22;1.83;;;27.80;49.10;;;;;;7379152;19;20014;-87
2022/09/06 16:55:02;;;;;;;4.18;1.92;;;27.60;50.00;;;;;;7381626;19;20334;-86
2022/09/06 16:57:32;;;;;;;3.40;1.70;;;27.60;50.10;;;;;;7404840;19;20082;-87
2022/09/06 17:00:02;;;;;;;6.70;2.05;;;27.40;50.40;;;;;;7380299;19;20006;-87
2022/09/06 17:02:32;;;;;;;5.15;1.60;;;27.20;51.00;;;;;;7380516;19;20502;-86
2022/09/06 17:05:02;;;;;;;4.03;1.70;;;27.20;50.90;;;;;;7379366;19;20034;-87
2022/09/06 17:07:33;;;;;;;3.72;1.50;;;27.40;51.10;;;;;;7388941;19;20311;-86
2022/09/06 17:10:06;;;;;;;2.43;1.80;;;27.30;51.00;;;;;;7381608;19;20014;-87
2022/09/06 17:12:36;;;;;;;5.18;1.88;;;27.10;51.10;;;;;;7404073;19;20039;-86
2022/09/06 17:15:06;;;;;;;4.88;2.05;;;26.80;51.80;;;;;;7386461;19;20018;-86
2022/09/06 17:17:34;;;;;;;3.15;1.83;;;26.70;51.70;;;;;;7384723;19;20014;-86
2022/09/06 17:20:03;;;;;;;6.03;2.00;;;26.70;51.90;;;;;;7388801;19;20397;-86
2022/09/06 17:22:35;;;;;;;3.40;1.70;;;26.60;51.70;;;;;;7393761;19;20054;-86
2022/09/06 17:25:08;;;;;;;5.82;2.10;;;26.70;51.80;;;;;;7391889;19;20018;-87
2022/09/06 17:27:37;;;;;;;8.50;2.30;;;26.80;51.90;;;;;;7410646;19;20030;-85
2022/09/06 17:30:08;;;;;;;5.20;2.13;;;26.90;52.70;;;;;;7418582;19;20515;-87
2022/09/06 17:32:40;;;;;;;4.20;2.10;;;26.90;52.10;;;;;;7390895;19;20019;-86
2022/09/06 17:35:10;;;;;;;7.72;1.90;;;27.00;52.40;;;;;;7383864;19;20010;-86
2022/09/06 17:37:40;;;;;;;6.68;2.10;;;27.00;52.50;;;;;;7380191;19;20026;-86
2022/09/06 17:40:14;;;;;;;8.05;2.05;;;27.00;53.40;;;;;;7377978;19;20019;-86
2022/09/06 17:42:43;;;;;;;5.72;1.80;;;27.00;54.60;;;;;;7379946;19;20014;-85
2022/09/06 17:45:14;;;;;;;3.53;1.80;;;27.00;55.20;;;;;;7403321;19;20022;-86
2022/09/06 17:47:44;;;;;;;5.45;2.20;;;26.80;55.80;;;;;;7379958;19;20018;-86
2022/09/06 17:50:16;;;;;;;4.82;2.03;;;26.70;55.50;;;;;;7379205;19;20025;-86
2022/09/06 17:52:46;;;;;;;7.78;1.73;;;26.50;55.80;;;;;;7378458;19;20040;-86
2022/09/06 17:55:19;;;;;;;6.53;1.87;;;26.50;56.10;;;;;;7378190;19;20014;-86
2022/09/06 17:57:49;;;;;;;5.05;2.00;;;26.30;56.60;;;;;;7382085;19;20357;-85
2022/09/06 18:00:19;;;;;;;6.55;1.88;;;26.10;55.90;;;;;;7409522;19;20028;-84
2022/09/06 18:02:49;;;;;;;7.07;2.47;;;26.20;55.60;;;;;;7400517;19;20019;-85
2022/09/06 18:05:20;;;;;;;7.28;2.22;;;26.30;54.80;;;;;;7396231;19;20267;-85
2022/09/06 18:07:50;;;;;;;4.53;2.00;;;26.40;54.80;;;;;;7387246;19;20047;-85
2022/09/06 18:10:24;;;;;;;5.47;1.98;;;26.50;53.90;;;;;;7386006;19;20014;-85
2022/09/06 18:12:54;;;;;;;7.03;2.20;;;26.50;53.10;;;;;;7383666;19;20026;-84
2022/09/06 18:15:24;;;;;;;4.90;1.70;;;26.60;53.30;;;;;;7398911;19;20010;-85
2022/09/06 18:17:54;;;;;;;3.50;1.90;;;26.60;54.00;;;;;;7377708;19;20802;-85
2022/09/06 18:20:24;;;;;;;9.35;2.22;;;26.50;52.50;;;;;;7377302;19;20047;-85
2022/09/06 18:22:55;;;;;;;12.35;2.55;;;26.40;53.50;;;;;;7377859;19;20038;-85
2022/09/06 18:25:27;;;;;;;6.45;2.20;;;26.40;53.40;;;;;;7376869;19;20022;-85
2022/09/06 18:27:59;;;;;;;6.00;2.70;;;26.40;53.10;;;;;;7378483;19;20051;-85
2022/09/06 18:30:31;;;;;;;9.98;2.17;;;26.40;54.10;;;;;;7397120;19;20014;-85
2022/09/06 18:33:03;;;;;;;7.03;2.33;;;26.50;54.30;;;;;;7375885;19;20369;-85
2022/09/06 18:35:34;;;;;;;5.97;2.55;;;26.40;54.80;;;;;;7378193;19;20754;-85
2022/09/06 18:38:04;;;;;;;6.70;2.53;;;26.40;54.80;;;;;;7378177;19;20071;-85
2022/09/06 18:40:40;;;;;;;7.70;2.40;;;26.30;55.30;;;;;;7378462;19;20011;-85
2022/09/06 18:43:11;;;;;;;5.57;2.10;;;26.30;55.20;;;;;;7380829;19;20090;-85
2022/09/06 18:45:41;;;;;;;5.20;1.95;;;26.20;55.50;;;;;;7380059;19;20063;-84
2022/09/06 18:48:12;;;;;;;5.38;2.33;;;26.00;55.60;;;;;;7399658;19;20045;-85
2022/09/06 18:50:42;;;;;;;10.50;2.50;;;26.00;55.40;;;;;;7378772;19;20015;-84
2022/09/06 18:53:13;;;;;;;6.50;2.20;;;26.00;55.90;;;;;;7375616;19;20019;-85
2022/09/06 18:55:47;;;;;;;6.68;2.00;;;25.90;56.00;;;;;;7383033;19;20471;-84
2022/09/06 18:58:18;;;;;;;4.43;2.15;;;25.80;55.60;;;;;;7386263;19;20010;-84
2022/09/06 19:00:50;;;;;;;5.45;1.90;;;25.60;55.80;;;;;;7388122;19;20039;-85
2022/09/06 19:03:20;;;;;;;5.40;2.08;;;25.40;55.90;;;;;;7404093;19;20040;-84
2022/09/06 19:05:51;;;;;;;4.05;1.95;;;25.20;56.00;;;;;;7380120;19;20013;-85
2022/09/06 19:08:22;;;;;;;3.20;2.15;;;25.30;56.40;;;;;;7378671;19;20137;-84
2022/09/06 19:11:04;;;;;;;13.27;2.28;;;25.30;56.80;;;;;;7381342;19;20134;-84
2022/09/06 19:13:40;;;;;;;3.88;1.90;;;25.20;56.10;;;;;;7379959;19;20010;-86
2022/09/06 19:16:13;;;;;;;6.47;2.63;;;25.10;54.80;;;;;;7382816;19;20019;-85
2022/09/06 19:18:45;;;;;;;5.40;2.03;;;24.90;56.10;;;;;;7386141;19;20035;-87
2022/09/06 19:21:17;;;;;;;6.82;1.88;;;24.40;56.00;;;;;;7407870;19;20026;-86
2022/09/06 19:23:51;;;;;;;8.70;1.70;;;24.40;56.30;;;;;;7381049;19;20043;-86
2022/09/06 19:26:26;;;;;;;6.30;1.77;;;24.10;56.50;;;;;;7381275;19;20015;-86
2022/09/06 19:29:02;;;;;;;3.83;1.58;;;23.90;56.50;;;;;;7385116;19;20090;-86
2022/09/06 19:31:35;;;;;;;6.25;1.67;;;23.80;56.80;;;;;;7383261;19;20039;-86
2022/09/06 19:34:07;;;;;;;2.92;1.50;;;23.70;57.30;;;;;;7387060;19;20007;-86
2022/09/06 19:36:38;;;;;;;3.67;1.67;;;23.70;57.10;;;;;;7412970;19;20039;-82
2022/09/06 19:39:10;;;;;;;6.15;1.77;;;23.70;57.60;;;;;;7412079;19;20716;-86
2022/09/06 19:41:45;;;;;;;5.88;1.42;;;23.80;57.70;;;;;;7387336;19;20042;-86
2022/09/06 19:44:14;;;;;;;10.13;1.98;;;23.90;57.50;;;;;;7385289;19;20062;-86
2022/09/06 19:46:45;;;;;;;2.90;1.38;;;24.00;57.50;;;;;;7378453;19;20114;-87
2022/09/06 19:49:14;;;;;;;7.33;1.57;;;24.00;57.30;;;;;;7377554;19;20018;-86
2022/09/06 19:51:45;;;;;;;9.27;1.90;;;23.70;57.90;;;;;;7379550;19;20297;-86
2022/09/06 19:54:14;;;;;;;6.63;1.63;;;23.60;58.60;;;;;;7400271;19;20014;-86
2022/09/06 19:56:46;;;;;;;6.88;1.70;;;23.70;58.60;;;;;;7379774;19;20031;-86
2022/09/06 19:59:16;;;;;;;7.50;1.80;;;23.80;58.40;;;;;;7377099;19;20122;-86
2022/09/06 20:01:46;;;;;;;4.70;1.57;;;23.70;58.30;;;;;;7375669;19;20007;-85
2022/09/06 20:04:16;;;;;;;10.60;1.83;;;23.50;59.00;;;;;;7382679;19;20271;-86
2022/09/06 20:06:45;;;;;;;11.95;1.80;;;23.30;59.60;;;;;;7392626;19;20596;-87
2022/09/06 20:09:14;;;;;;;4.88;1.50;;;23.50;59.50;;;;;;7400263;19;20055;-85
2022/09/06 20:11:46;;;;;;;8.25;1.58;;;23.50;59.60;;;;;;7383027;19;20015;-85
2022/09/06 20:14:15;;;;;;;7.10;2.08;;;23.60;59.30;;;;;;7376791;19;20027;-84
2022/09/06 20:16:44;;;;;;;13.65;3.72;;;23.60;59.10;;;;;;7381676;19;20101;-85
2022/09/06 20:19:14;;;;;;;11.20;2.25;;;23.70;59.20;;;;;;7385217;19;20050;-85
2022/09/06 20:21:43;;;;;;;6.13;1.77;;;23.80;58.70;;;;;;7382383;19;20025;-85
2022/09/06 20:24:12;;;;;;;9.73;1.63;;;24.00;58.60;;;;;;7402970;19;20029;-86
2022/09/06 20:26:41;;;;;;;6.82;1.50;;;24.10;58.40;;;;;;7390146;19;20070;-86
2022/09/06 20:29:12;;;;;;;3.88;1.40;;;24.00;58.10;;;;;;7395205;19;20014;-87
2022/09/06 20:31:40;;;;;;;;;;;24.20;57.90;;;;;;7395903;19;20015;-86
2022/09/06 20:34:09;;;;;;;5.13;1.60;;;24.20;57.70;;;;;;7394928;19;20215;-86
2022/09/06 20:36:38;;;;;;;7.15;1.77;;;24.40;57.30;;;;;;7396825;19;20007;-84
2022/09/06 20:39:06;;;;;;;5.90;1.58;;;24.40;57.60;;;;;;7415239;19;20078;-86
2022/09/06 20:41:36;;;;;;;8.52;2.00;;;24.60;57.30;;;;;;7391956;19;20026;-86
2022/09/06 20:44:05;;;;;;;9.93;1.75;;;24.50;57.30;;;;;;7393126;19;20077;-87
2022/09/06 20:46:37;;;;;;;8.43;1.63;;;24.60;57.20;;;;;;7403023;19;20010;-85
2022/09/06 20:49:06;;;;;;;2.65;1.60;;;24.40;57.00;;;;;;7408451;19;20007;-85
2022/09/06 20:51:39;;;;;;;6.50;1.98;;;24.50;57.20;;;;;;7424846;19;20021;-86
2022/09/06 20:54:08;;;;;;;4.85;1.88;;;24.40;57.60;;;;;;7396913;19;20113;-86